Time;durP1;ratioP1;P1;durP2;ratioP2;P2;SDS_P1;SDS_P2;PMS_P1;PMS_P2;Temp;Humidity;BMP_temperature;BMP_pressure;BME280_temperature;BME280_humidity;BME280_pressure;Samples;Min_cycle;Max_cycle;Signal;HPM_P1;HPM_P2
2021/05/20 00:01:39;;;;;;;6.50;1.87;;;;;;;10.17;100.00;98294.42;1608882;89;20979;-81
2021/05/20 00:04:05;;;;;;;3.45;1.92;;;;;;;10.16;100.00;98301.05;1608847;89;20963;-81
2021/05/20 00:06:32;;;;;;;2.30;1.80;;;;;;;10.14;100.00;98300.59;1608857;89;21514;-80
2021/05/20 00:08:58;;;;;;;2.40;1.67;;;;;;;10.15;100.00;98300.81;1608813;89;21613;-80
2021/05/20 00:11:25;;;;;;;3.55;1.87;;;;;;;10.15;100.00;98297.50;1608859;87;20944;-77
2021/05/20 00:13:52;;;;;;;2.22;1.62;;;;;;;10.15;100.00;98296.70;1608802;89;20957;-78
2021/05/20 00:16:18;;;;;;;3.08;1.47;;;;;;;10.14;100.00;98297.84;1608779;89;21032;-78
2021/05/20 00:18:44;;;;;;;2.65;1.77;;;;;;;10.14;100.00;98296.48;1608846;89;21521;-77
2021/05/20 00:21:11;;;;;;;7.28;2.50;;;;;;;10.14;100.00;98295.11;1627334;86;21105;-78
2021/05/20 00:23:38;;;;;;;5.17;1.85;;;;;;;10.14;100.00;98300.02;1619976;87;21060;-78
2021/05/20 00:26:04;;;;;;;4.72;1.80;;;;;;;10.14;100.00;98300.59;1608899;89;20977;-80
2021/05/20 00:28:31;;;;;;;6.25;2.27;;;;;;;10.15;100.00;98298.08;1608767;89;21498;-80
2021/05/20 00:30:57;;;;;;;6.03;1.82;;;;;;;10.14;100.00;98294.53;1608729;89;20968;-78
2021/05/20 00:33:24;;;;;;;3.58;2.20;;;;;;;10.14;100.00;98292.36;1608694;87;21074;-79
2021/05/20 00:35:51;;;;;;;18.27;3.22;;;;;;;10.14;100.00;98290.99;1608688;88;21610;-82
2021/05/20 00:38:17;;;;;;;3.12;2.10;;;;;;;10.14;100.00;98295.11;1608900;88;21044;-82
2021/05/20 00:40:44;;;;;;;3.92;1.80;;;;;;;10.14;100.00;98289.62;1608703;89;21559;-85
2021/05/20 00:43:10;;;;;;;2.58;1.92;;;;;;;10.14;100.00;98293.73;1608799;88;21027;-78
2021/05/20 00:45:37;;;;;;;2.90;2.20;;;;;;;10.14;100.00;98291.79;1608821;89;21467;-79
2021/05/20 00:48:05;;;;;;;4.50;1.90;;;;;;;10.15;100.00;98288.48;1608780;89;21514;-78
2021/05/20 00:50:31;;;;;;;6.37;2.35;;;;;;;10.15;100.00;98293.39;1604693;87;20925;-78
2021/05/20 00:52:58;;;;;;;5.50;2.08;;;;;;;10.15;100.00;98291.22;1601484;89;21027;-78
2021/05/20 00:55:30;;;;;;;6.78;2.37;;;;;;;10.14;100.00;98280.02;1601554;89;21526;-77
2021/05/20 00:57:54;;;;;;;3.58;1.50;;;;;;;10.14;100.00;98294.53;1601099;89;20946;-79
2021/05/20 01:00:24;;;;;;;2.62;1.80;;;;;;;10.14;100.00;98296.48;1601382;89;21622;-76
2021/05/20 01:02:49;;;;;;;2.22;1.92;;;;;;;10.14;100.00;98291.79;1601465;89;21016;-78
2021/05/20 01:05:16;;;;;;;3.83;1.90;;;;;;;10.13;100.00;98286.65;1601605;89;20945;-83
2021/05/20 01:07:42;;;;;;;3.55;2.08;;;;;;;10.14;100.00;98298.65;1601663;89;20945;-80
2021/05/20 01:10:10;;;;;;;5.03;1.92;;;;;;;10.13;100.00;98298.42;1601516;89;21041;-81
2021/05/20 01:12:38;;;;;;;5.60;1.70;;;;;;;10.12;100.00;98294.08;1601404;88;21678;-82
2021/05/20 01:15:08;;;;;;;6.40;1.95;;;;;;;10.12;100.00;98291.91;1601568;89;20933;-82
2021/05/20 01:17:34;;;;;;;5.55;2.02;;;;;;;10.10;100.00;98285.39;1601399;88;21665;-82
2021/05/20 01:20:01;;;;;;;2.87;2.12;;;;;;;10.09;100.00;98292.59;1606360;88;21034;-83
2021/05/20 01:22:28;;;;;;;8.98;2.62;;;;;;;10.08;100.00;98295.91;1619197;88;21461;-83
2021/05/20 01:24:55;;;;;;;4.53;1.60;;;;;;;10.07;100.00;98287.45;1600181;89;20977;-84
2021/05/20 01:27:21;;;;;;;2.55;1.67;;;;;;;10.06;100.00;98283.68;1619111;88;20983;-84
2021/05/20 01:29:47;;;;;;;3.37;1.90;;;;;;;10.06;100.00;98288.59;1600153;89;21100;-78
2021/05/20 01:32:14;;;;;;;3.98;1.47;;;;;;;10.06;100.00;98283.68;1619127;88;20999;-85
2021/05/20 01:34:40;;;;;;;2.77;1.90;;;;;;;10.06;100.00;98285.05;1600128;89;21915;-83
2021/05/20 01:37:08;;;;;;;5.85;1.57;;;;;;;10.05;100.00;98280.70;1619067;88;20975;-84
2021/05/20 01:39:36;;;;;;;2.37;1.80;;;;;;;10.04;100.00;98290.08;1600161;88;20937;-81
2021/05/20 01:42:02;;;;;;;3.45;1.90;;;;;;;10.04;100.00;98288.70;1619116;88;21517;-82
2021/05/20 01:44:29;;;;;;;1.92;1.70;;;;;;;10.03;100.00;98285.73;1600105;89;21126;-81
2021/05/20 01:46:56;;;;;;;3.58;1.98;;;;;;;10.03;100.00;98291.22;1619049;88;21851;-81
2021/05/20 01:49:22;;;;;;;4.90;1.70;;;;;;;10.02;100.00;98280.02;1600226;89;21521;-80
2021/05/20 01:51:48;;;;;;;2.05;1.82;;;;;;;10.01;100.00;98280.59;1619103;87;20935;-79
2021/05/20 01:54:15;;;;;;;3.12;1.85;;;;;;;10.00;100.00;98283.11;1600230;89;20949;-80
2021/05/20 01:56:41;;;;;;;4.00;2.33;;;;;;;10.00;100.00;98280.94;1619029;87;20935;-80
2021/05/20 01:59:08;;;;;;;1.90;1.67;;;;;;;9.99;100.00;98276.59;1600288;89;21076;-79
2021/05/20 02:01:37;;;;;;;5.75;1.85;;;;;;;10.00;100.00;98276.82;1618949;88;21030;-81
2021/05/20 02:04:04;;;;;;;3.08;1.70;;;;;;;10.00;100.00;98280.94;1619151;88;20959;-80
2021/05/20 02:06:30;;;;;;;4.40;1.87;;;;;;;9.99;100.00;98280.14;1619226;88;21026;-83
2021/05/20 02:08:58;;;;;;;4.33;1.65;;;;;;;9.99;100.00;98271.91;1618914;88;20995;-82
2021/05/20 02:11:25;;;;;;;3.65;1.65;;;;;;;9.99;100.00;98265.05;1619012;87;21047;-87
2021/05/20 02:13:52;;;;;;;3.42;1.90;;;;;;;10.01;100.00;98267.45;1618986;88;20911;-84
2021/05/20 02:16:19;;;;;;;5.50;2.50;;;;;;;10.02;100.00;98273.97;1619052;88;21626;-86
2021/05/20 02:18:45;;;;;;;2.35;1.90;;;;;;;10.01;100.00;98270.20;1619042;88;20975;-83
2021/05/20 02:21:12;;;;;;;2.90;1.60;;;;;;;9.99;100.00;98268.37;1618980;88;20967;-78
2021/05/20 02:23:39;;;;;;;4.35;1.52;;;;;;;10.01;100.00;98272.94;1619048;88;21072;-78
2021/05/20 02:26:05;;;;;;;3.45;1.80;;;;;;;10.01;100.00;98275.68;1618989;88;21553;-78
2021/05/20 02:28:32;;;;;;;2.67;1.50;;;;;;;10.02;100.00;98266.31;1600268;88;20946;-79
2021/05/20 02:30:59;;;;;;;2.00;1.72;;;;;;;10.02;100.00;98258.09;1605854;88;20996;-85
2021/05/20 02:33:25;;;;;;;2.58;1.65;;;;;;;10.01;100.00;98255.12;1601541;89;21005;-86
2021/05/20 02:35:52;;;;;;;7.20;1.90;;;;;;;10.01;100.00;98264.14;1601477;89;21090;-85
2021/05/20 02:38:19;;;;;;;1.77;1.57;;;;;;;10.00;100.00;98250.78;1601385;89;21037;-83
2021/05/20 02:40:45;;;;;;;5.90;1.87;;;;;;;9.99;100.00;98263.69;1601454;89;21091;-83
2021/05/20 02:43:13;;;;;;;3.10;1.72;;;;;;;10.00;100.00;98257.63;1601397;89;20941;-80
2021/05/20 02:45:40;;;;;;;2.83;1.70;;;;;;;10.00;100.00;98257.63;1601446;89;21012;-81
2021/05/20 02:48:08;;;;;;;2.75;1.50;;;;;;;10.00;100.00;98264.48;1601482;89;21151;-86
2021/05/20 02:50:34;;;;;;;7.78;1.65;;;;;;;9.99;100.00;98271.11;1603407;89;20984;-86
2021/05/20 02:53:01;;;;;;;3.62;1.50;;;;;;;9.99;100.00;98260.14;1608901;87;21016;-84
2021/05/20 02:55:27;;;;;;;5.05;1.85;;;;;;;9.98;100.00;98270.87;1608967;89;21064;-81
2021/05/20 02:57:56;;;;;;;2.87;1.98;;;;;;;9.98;100.00;98275.80;1608933;87;21479;-80
2021/05/20 03:00:26;;;;;;;4.00;1.90;;;;;;;9.97;100.00;98278.87;1608923;89;21140;-81
2021/05/20 03:02:50;;;;;;;3.52;1.50;;;;;;;9.96;100.00;98280.02;1608649;88;21064;-85
2021/05/20 03:05:18;;;;;;;4.75;1.82;;;;;;;9.98;100.00;98284.59;1609269;89;21010;-92
2021/05/20 03:07:44;;;;;;;5.87;2.62;;;;;;;9.97;100.00;98276.94;1592273;90;21058;-80
2021/05/20 03:10:11;;;;;;;4.03;1.80;;;;;;;9.97;100.00;98285.16;1583167;89;21544;-81
2021/05/20 03:12:39;;;;;;;2.15;1.45;;;;;;;9.97;100.00;98291.22;1609382;87;21901;-72
2021/05/20 03:15:07;;;;;;;4.78;2.00;;;;;;;9.95;100.00;98281.95;1596789;89;21523;-83
2021/05/20 03:17:34;;;;;;;3.10;1.80;;;;;;;9.96;100.00;98284.13;1606375;87;21590;-81
2021/05/20 03:20:04;;;;;;;4.80;1.92;;;;;;;9.96;100.00;98284.13;1583470;89;20952;-76
2021/05/20 03:22:31;;;;;;;3.67;1.55;;;;;;;9.96;100.00;98284.13;1583636;90;21701;-76
2021/05/20 03:24:57;;;;;;;5.20;2.00;;;;;;;9.99;100.00;98291.10;1583488;89;21776;-80
2021/05/20 03:27:24;;;;;;;3.83;1.85;;;;;;;10.00;100.00;98297.38;1583569;90;20924;-78
2021/05/20 03:29:50;;;;;;;3.52;1.62;;;;;;;10.01;100.00;98294.30;1583619;89;20952;-78
2021/05/20 03:32:16;;;;;;;3.70;1.70;;;;;;;10.03;100.00;98298.07;1582441;90;21122;-85
2021/05/20 03:34:43;;;;;;;4.15;1.87;;;;;;;10.06;100.00;98297.39;1604304;88;20976;-84
2021/05/20 03:37:09;;;;;;;2.10;1.77;;;;;;;10.11;100.00;98298.53;1580461;90;21088;-82
2021/05/20 03:39:37;;;;;;;4.97;1.75;;;;;;;10.17;100.00;98298.53;1580190;90;21160;-82
2021/05/20 03:42:04;;;;;;;3.02;1.90;;;;;;;10.21;100.00;98302.22;1580632;89;21555;-84
2021/05/20 03:44:31;;;;;;;4.85;1.90;;;;;;;10.28;100.00;98301.65;1596553;89;21115;-84
2021/05/20 03:46:59;;;;;;;3.33;1.80;;;;;;;10.34;100.00;98305.19;1606557;89;21055;-83
2021/05/20 03:49:26;;;;;;;2.95;1.75;;;;;;;10.42;100.00;98306.98;1607030;88;21819;-82
2021/05/20 03:51:53;;;;;;;3.15;1.77;;;;;;;10.52;100.00;98313.38;1602204;87;21059;-82
2021/05/20 03:54:20;;;;;;;5.60;1.80;;;;;;;10.64;99.87;98310.39;1599754;89;22346;-82
2021/05/20 03:56:47;;;;;;;3.60;1.87;;;;;;;10.77;100.00;98314.71;1599601;89;22339;-82
2021/05/20 03:59:13;;;;;;;3.00;1.60;;;;;;;10.91;99.98;98318.68;1575505;91;21034;-82
2021/05/20 04:01:40;;;;;;;4.10;1.98;;;;;;;11.05;98.48;98307.28;1600494;88;21090;-82
2021/05/20 04:04:08;;;;;;;5.33;1.60;;;;;;;11.14;98.21;98313.44;1600192;89;21027;-82
2021/05/20 04:06:35;;;;;;;2.25;1.55;;;;;;;11.22;97.11;98309.73;1574352;91;21606;-82
2021/05/20 04:09:02;;;;;;;4.75;2.05;;;;;;;11.25;95.46;98310.98;1568298;90;21028;-77
2021/05/20 04:11:29;;;;;;;2.40;1.57;;;;;;;11.29;96.27;98308.34;1600287;88;21610;-82
2021/05/20 04:13:57;;;;;;;2.77;1.30;;;;;;;11.32;95.03;98311.19;1601344;89;21184;-84
2021/05/20 04:16:28;;;;;;;4.62;1.27;;;;;;;11.34;94.96;98305.34;1601405;89;20936;-85
2021/05/20 04:18:53;;;;;;;2.80;1.35;;;;;;;11.38;95.10;98315.28;1600704;88;20945;-83
2021/05/20 04:21:19;;;;;;;2.92;1.50;;;;;;;11.41;94.87;98310.46;1601598;88;20972;-84
2021/05/20 04:23:46;;;;;;;10.75;1.98;;;;;;;11.45;94.66;98317.42;1601731;88;20948;-83
2021/05/20 04:26:13;;;;;;;2.10;1.25;;;;;;;11.47;94.00;98316.50;1578268;89;21048;-83
2021/05/20 04:28:41;;;;;;;4.05;1.90;;;;;;;11.47;94.08;98324.75;1601462;88;21000;-83
2021/05/20 04:31:07;;;;;;;4.10;1.90;;;;;;;11.46;94.07;98334.94;1601449;89;21634;-86
2021/05/20 04:33:34;;;;;;;3.40;1.70;;;;;;;11.47;94.00;98322.00;1575461;91;21052;-82
2021/05/20 04:36:00;;;;;;;4.03;1.90;;;;;;;11.48;93.85;98321.65;1599848;89;21103;-85
2021/05/20 04:38:28;;;;;;;7.35;2.00;;;;;;;11.49;93.93;98327.37;1573769;91;21511;-87
2021/05/20 04:40:55;;;;;;;2.67;1.67;;;;;;;11.50;93.71;98322.67;1599786;89;21316;-80
2021/05/20 04:43:21;;;;;;;6.37;2.10;;;;;;;11.50;93.40;98313.05;1573488;91;20985;-85
2021/05/20 04:45:47;;;;;;;8.95;2.27;;;;;;;11.51;93.47;98319.57;1599825;89;21099;-88
2021/05/20 04:48:14;;;;;;;3.67;2.30;;;;;;;11.52;92.75;98324.49;1573761;91;21061;-89
2021/05/20 04:50:42;;;;;;;6.47;2.15;;;;;;;11.54;92.70;98330.44;1600553;88;20987;-86
2021/05/20 04:53:09;;;;;;;4.05;1.98;;;;;;;11.56;92.52;98327.53;1589973;90;21031;-86
2021/05/20 04:55:36;;;;;;;6.72;2.17;;;;;;;11.61;92.66;98333.34;1599943;89;20923;-88
2021/05/20 04:58:02;;;;;;;4.05;1.92;;;;;;;11.65;92.50;98326.58;1615279;87;20984;-87
2021/05/20 05:00:29;;;;;;;3.05;2.22;;;;;;;11.68;92.52;98325.30;1614385;88;21082;-90
2021/05/20 05:02:57;;;;;;;3.30;1.82;;;;;;;11.70;91.85;98340.86;1641881;87;21507;-89
2021/05/20 05:05:24;;;;;;;3.80;2.30;;;;;;;11.72;92.17;98339.13;1641946;86;20924;-91
2021/05/20 05:07:51;;;;;;;7.90;2.25;;;;;;;11.74;91.14;98341.75;1623233;87;20992;-92
2021/05/20 05:10:18;;;;;;;5.45;1.95;;;;;;;11.83;91.51;98347.13;1642102;86;21630;-91
2021/05/20 05:12:44;;;;;;;5.28;2.00;;;;;;;11.96;90.86;98353.34;1641944;86;21602;-89
2021/05/20 05:15:11;;;;;;;9.45;1.92;;;;;;;12.07;88.62;98348.92;1642035;87;22329;-90
2021/05/20 05:17:37;;;;;;;4.75;1.67;;;;;;;12.14;88.37;98348.50;1641684;87;21023;-83
2021/05/20 05:20:07;;;;;;;2.67;2.00;;;;;;;12.22;88.75;98348.90;1641193;86;20996;-84
2021/05/20 05:22:33;;;;;;;9.53;1.80;;;;;;;12.34;89.19;98345.26;1641457;86;20905;-78
2021/05/20 05:25:00;;;;;;;3.60;2.12;;;;;;;12.45;87.22;98351.81;1641527;87;21569;-75
2021/05/20 05:27:26;;;;;;;4.85;1.80;;;;;;;12.54;87.12;98348.30;1641686;86;21048;-76
2021/05/20 05:29:52;;;;;;;6.10;2.02;;;;;;;12.64;85.49;98353.04;1641612;87;20995;-73
2021/05/20 05:32:19;;;;;;;5.00;1.82;;;;;;;12.74;86.52;98355.21;1646668;87;21583;-76
2021/05/20 05:34:46;;;;;;;5.65;1.98;;;;;;;12.89;85.90;98353.80;1618063;88;20960;-78
2021/05/20 05:37:12;;;;;;;6.33;1.60;;;;;;;12.99;84.09;98356.58;1601281;89;20985;-76
2021/05/20 05:39:39;;;;;;;3.08;2.08;;;;;;;13.04;81.75;98367.31;1618302;87;21547;-74
2021/05/20 05:42:06;;;;;;;4.12;1.60;;;;;;;13.09;81.36;98367.03;1618307;87;21087;-75
2021/05/20 05:44:32;;;;;;;8.65;1.67;;;;;;;13.19;82.21;98365.11;1602473;89;21013;-76
2021/05/20 05:47:00;;;;;;;2.83;1.67;;;;;;;13.35;81.42;98372.49;1618626;87;21003;-74
2021/05/20 05:49:29;;;;;;;5.28;1.70;;;;;;;13.45;79.85;98366.41;1618327;88;21010;-82
2021/05/20 05:52:06;;;;;;;7.83;2.22;;;;;;;13.58;80.06;98362.91;1593707;89;21570;-78
2021/05/20 05:54:27;;;;;;;7.92;1.30;;;;;;;13.67;78.41;98377.28;1600072;88;21637;-76
2021/05/20 05:56:54;;;;;;;3.77;1.45;;;;;;;13.70;79.68;98380.11;1601527;89;20940;-80
2021/05/20 05:59:20;;;;;;;8.53;1.80;;;;;;;13.78;79.91;98385.19;1601433;88;21057;-82
2021/05/20 06:01:48;;;;;;;3.95;1.80;;;;;;;13.87;78.89;98400.31;1576446;91;21042;-83
2021/05/20 06:04:15;;;;;;;3.65;1.50;;;;;;;13.92;77.70;98395.66;1601484;89;21532;-81
2021/05/20 06:06:43;;;;;;;4.55;1.92;;;;;;;13.95;76.50;98400.45;1578450;89;20972;-84
2021/05/20 06:09:11;;;;;;;2.70;1.67;;;;;;;14.02;76.75;98411.04;1576532;90;21037;-78
2021/05/20 06:11:37;;;;;;;4.72;2.33;;;;;;;14.17;77.67;98409.34;1601425;89;20996;-79
2021/05/20 06:14:07;;;;;;;5.40;2.17;;;;;;;14.28;78.52;98409.53;1601476;88;21504;-74
2021/05/20 06:16:39;;;;;;;5.28;2.65;;;;;;;14.29;78.63;98411.12;1601538;88;21056;-79
2021/05/20 06:19:07;;;;;;;7.15;2.27;;;;;;;14.30;78.65;98413.52;1601406;89;20949;-75
2021/05/20 06:21:34;;;;;;;4.97;2.10;;;;;;;14.28;77.17;98403.43;1601371;88;21522;-78
2021/05/20 06:24:02;;;;;;;6.58;2.10;;;;;;;14.28;76.77;98410.91;1601529;89;20944;-81
2021/05/20 06:26:29;;;;;;;6.05;2.55;;;;;;;14.27;76.94;98421.16;1601657;89;21634;-87
2021/05/20 06:28:55;;;;;;;4.80;2.50;;;;;;;14.30;77.10;98416.86;1601690;89;21570;-79
2021/05/20 06:31:23;;;;;;;6.12;2.80;;;;;;;14.32;76.23;98418.67;1602256;89;21035;-77
2021/05/20 06:33:53;;;;;;;6.00;2.02;;;;;;;14.36;74.91;98407.11;1574872;91;21000;-76
2021/05/20 06:36:19;;;;;;;8.13;2.25;;;;;;;14.35;74.77;98420.12;1578198;89;21066;-78
2021/05/20 06:38:46;;;;;;;8.00;2.50;;;;;;;14.37;75.97;98427.45;1574161;91;21464;-79
2021/05/20 06:41:12;;;;;;;4.58;3.10;;;;;;;14.43;75.05;98412.20;1600557;89;21088;-77
2021/05/20 06:43:39;;;;;;;9.23;3.12;;;;;;;14.52;76.92;98427.91;1602335;89;21092;-83
2021/05/20 06:46:06;;;;;;;4.72;2.72;;;;;;;14.71;76.09;98441.44;1603079;89;20958;-79
2021/05/20 06:48:33;;;;;;;7.22;2.20;;;;;;;14.73;74.41;98435.77;1600630;88;21598;-84
2021/05/20 06:51:00;;;;;;;7.67;2.55;;;;;;;14.69;75.26;98436.88;1599751;89;20969;-83
2021/05/20 06:53:29;;;;;;;12.90;2.30;;;;;;;14.62;75.60;98436.17;1606462;88;21049;-80
2021/05/20 06:55:58;;;;;;;7.53;2.70;;;;;;;14.58;75.74;98444.17;1607286;89;20972;-76
2021/05/20 07:01:10;;;;;;;2.95;2.20;;;;;;;14.54;75.32;98441.36;1607050;89;21115;-77
2021/05/20 07:03:37;;;;;;;3.30;2.25;;;;;;;14.57;74.51;98435.68;1607645;89;20949;-83
2021/05/20 07:06:04;;;;;;;9.43;2.62;;;;;;;14.60;74.69;98437.12;1607522;89;21093;-86
2021/05/20 07:08:30;;;;;;;6.47;2.35;;;;;;;14.63;73.45;98428.09;1607269;89;21122;-86
2021/05/20 07:10:57;;;;;;;5.05;2.52;;;;;;;14.73;74.67;98433.00;1607069;89;20913;-78
2021/05/20 07:13:24;;;;;;;6.67;2.50;;;;;;;14.88;75.87;98433.23;1607110;89;21063;-77
2021/05/20 07:15:50;;;;;;;5.17;2.30;;;;;;;15.02;76.43;98435.59;1607142;87;21590;-82
2021/05/20 07:18:17;;;;;;;5.95;2.40;;;;;;;15.10;74.57;98443.41;1605353;89;21502;-78
2021/05/20 07:20:44;;;;;;;2.75;2.20;;;;;;;15.06;74.62;98453.62;1580302;89;20958;-77
2021/05/20 07:23:13;;;;;;;5.92;2.17;;;;;;;15.01;74.98;98453.97;1580331;89;21651;-77
2021/05/20 07:25:40;;;;;;;11.00;2.20;;;;;;;14.98;75.21;98452.73;1580433;90;21055;-76
2021/05/20 07:28:07;;;;;;;4.47;2.40;;;;;;;14.88;73.48;98456.72;1580346;89;21047;-77
2021/05/20 07:30:35;;;;;;;5.83;2.15;;;;;;;14.79;73.00;98466.64;1580067;90;21116;-75
2021/05/20 07:33:02;;;;;;;4.47;3.10;;;;;;;14.75;74.10;98461.63;1591253;90;21081;-72
2021/05/20 07:35:29;;;;;;;6.75;2.80;;;;;;;14.74;74.05;98468.33;1608363;89;21628;-72
2021/05/20 07:37:56;;;;;;;5.10;2.40;;;;;;;14.68;73.83;98467.84;1608409;89;21020;-76
2021/05/20 07:40:23;;;;;;;3.98;2.17;;;;;;;14.65;73.16;98463.05;1608581;89;21029;-77
2021/05/20 07:42:49;;;;;;;11.53;3.72;;;;;;;14.69;73.84;98458.38;1608505;87;21547;-77
2021/05/20 07:45:16;;;;;;;9.15;3.25;;;;;;;14.83;74.37;98472.44;1608378;88;20948;-77
2021/05/20 07:47:44;;;;;;;10.63;3.00;;;;;;;15.09;75.48;98466.11;1608289;89;21541;-77
2021/05/20 07:50:11;;;;;;;8.35;3.00;;;;;;;15.44;71.82;98471.38;1608441;87;21048;-78
2021/05/20 07:52:38;;;;;;;8.88;2.67;;;;;;;15.66;70.15;98462.78;1612965;88;21045;-80
2021/05/20 07:55:06;;;;;;;7.80;2.72;;;;;;;15.68;70.17;98467.35;1619657;87;21543;-77
2021/05/20 07:57:33;;;;;;;5.47;2.50;;;;;;;15.66;71.25;98453.09;1618219;87;21035;-76
2021/05/20 07:59:59;;;;;;;5.78;2.52;;;;;;;15.73;71.82;98458.72;1617831;88;21044;-75
2021/05/20 08:04:57;;;;;;;3.98;2.22;;;;;;;16.06;69.47;98465.45;1617679;88;21618;-77
2021/05/20 08:07:34;;;;;;;5.85;2.70;;;;;;;16.23;67.72;98462.05;1617503;87;21097;-76
2021/05/20 08:12:33;;;;;;;5.70;2.27;;;;;;;16.63;67.46;98467.40;1605249;88;21627;-76
2021/05/20 08:15:01;;;;;;;4.15;2.10;;;;;;;16.88;65.37;98472.58;1590544;90;21126;-77
2021/05/20 08:17:29;;;;;;;4.97;2.30;;;;;;;17.10;62.68;98469.39;1590455;90;21038;-74
2021/05/20 08:19:56;;;;;;;6.03;2.20;;;;;;;17.22;62.37;98469.67;1590578;90;21890;-75
2021/05/20 08:22:23;;;;;;;6.40;2.33;;;;;;;17.35;62.21;98464.78;1590493;89;21099;-76
2021/05/20 08:24:51;;;;;;;9.33;2.37;;;;;;;17.45;62.41;98467.41;1598010;88;21588;-77
2021/05/20 08:27:17;;;;;;;6.67;2.15;;;;;;;17.61;64.15;98475.44;1617407;88;21429;-73
2021/05/20 08:29:44;;;;;;;5.55;2.22;;;;;;;17.84;62.83;98473.80;1600629;89;21152;-71
2021/05/20 08:32:11;;;;;;;4.45;2.20;;;;;;;17.88;61.29;98482.94;1617700;87;21849;-74
2021/05/20 08:34:37;;;;;;;6.58;2.10;;;;;;;17.67;60.84;98491.36;1617319;88;20961;-75
2021/05/20 08:37:04;;;;;;;5.03;2.40;;;;;;;17.49;62.36;98490.43;1590417;88;21110;-75
2021/05/20 08:39:30;;;;;;;5.45;2.10;;;;;;;17.36;61.87;98485.79;1590620;90;21123;-75
2021/05/20 08:41:57;;;;;;;6.72;2.02;;;;;;;17.33;62.67;98476.85;1616671;88;21116;-75
2021/05/20 08:44:26;;;;;;;4.87;2.10;;;;;;;17.45;60.67;98487.63;1600032;88;21085;-75
2021/05/20 08:46:57;;;;;;;1.70;1.40;;;;;;;17.68;60.32;98479.67;1599765;89;21062;-76
2021/05/20 08:49:25;;;;;;;4.37;1.47;;;;;;;17.93;57.48;98486.70;1599687;89;21018;-72
2021/05/20 08:51:53;;;;;;;7.35;2.10;;;;;;;18.17;57.92;98481.05;1615785;88;21067;-76
2021/05/20 08:54:21;;;;;;;3.35;1.75;;;;;;;18.24;55.67;98474.92;1605481;88;21078;-75
2021/05/20 08:56:55;;;;;;;2.40;1.98;;;;;;;18.24;58.59;98481.86;1605357;89;21099;-77
2021/05/20 08:59:22;;;;;;;4.97;1.50;;;;;;;18.29;59.05;98487.63;1603275;89;21019;-73
2021/05/20 09:01:51;;;;;;;2.95;1.62;;;;;;;18.51;57.57;98494.02;1604799;89;21367;-76
2021/05/20 09:04:17;;;;;;;7.78;2.00;;;;;;;18.82;53.65;98497.47;1604513;89;22526;-75
2021/05/20 09:06:49;;;;;;;5.25;2.08;;;;;;;18.97;53.75;98496.89;1605252;88;21017;-74
2021/05/20 09:09:21;;;;;;;3.60;1.45;;;;;;;19.07;55.32;98501.03;1602562;89;20979;-74
2021/05/20 09:11:53;;;;;;;12.07;1.82;;;;;;;19.27;54.59;98497.25;1604989;89;21056;-75
2021/05/20 09:14:41;;;;;;;5.35;1.35;;;;;;;19.47;53.39;98496.23;1604123;89;21617;-74
2021/05/20 09:17:17;;;;;;;3.35;1.80;;;;;;;19.46;53.50;98495.44;1580419;90;21191;-76
2021/05/20 09:19:59;;;;;;;5.47;1.85;;;;;;;19.33;51.43;98489.30;1580294;90;21040;-75
2021/05/20 09:22:27;;;;;;;7.37;1.92;;;;;;;19.26;52.85;98485.92;1579831;90;21505;-76
2021/05/20 09:24:57;;;;;;;3.67;2.30;;;;;;;19.46;52.25;98497.43;1591312;90;20983;-76
2021/05/20 09:27:31;;;;;;;5.17;2.25;;;;;;;19.47;52.88;98489.28;1591561;90;21058;-71
2021/05/20 09:30:21;;;;;;;5.85;1.87;;;;;;;19.33;52.78;98489.30;1578767;90;21039;-81
2021/05/20 09:33:08;;;;;;;3.40;1.62;;;;;;;18.97;53.70;98493.52;1588956;90;21126;-76
2021/05/20 09:35:51;;;;;;;2.58;1.42;;;;;;;18.67;53.47;98494.47;1606916;89;21122;-77
2021/05/20 09:38:20;;;;;;;5.22;1.57;;;;;;;18.59;52.36;98503.36;1590802;90;21652;-78
2021/05/20 09:41:01;;;;;;;2.30;1.60;;;;;;;18.75;52.98;98494.69;1591219;90;20934;-77
2021/05/20 09:43:35;;;;;;;4.12;1.60;;;;;;;18.95;51.56;98497.88;1607968;87;21011;-79
2021/05/20 09:46:14;;;;;;;2.15;1.60;;;;;;;19.24;54.35;98486.92;1606629;89;21119;-77
2021/05/20 09:48:49;;;;;;;4.12;1.30;;;;;;;19.52;51.63;98487.52;1605379;89;21004;-75
2021/05/20 09:51:28;;;;;;;6.17;1.45;;;;;;;19.35;51.59;98498.84;1605401;89;20987;-76
2021/05/20 09:53:55;;;;;;;1.50;1.00;;;;;;;19.26;51.10;98507.39;1584777;89;20956;-76
2021/05/20 09:56:41;;;;;;;4.67;1.50;;;;;;;19.37;51.30;98497.05;1591531;90;21106;-76
2021/05/20 09:59:12;;;;;;;4.37;1.40;;;;;;;19.42;52.23;98505.78;1588723;90;21519;-76
2021/05/20 10:01:36;;;;;;;6.20;1.90;;;;;;;19.28;51.04;98502.22;1590689;90;21072;-76
2021/05/20 10:04:03;;;;;;;4.40;1.35;;;;;;;19.08;51.93;98504.02;1586880;90;21665;-77
2021/05/20 10:06:43;;;;;;;6.58;1.20;;;;;;;19.07;48.84;98504.41;1589955;90;21125;-77
2021/05/20 10:09:12;;;;;;;7.30;1.65;;;;;;;19.01;49.50;98512.39;1591359;90;21640;-76
2021/05/20 10:11:41;;;;;;;3.55;1.27;;;;;;;19.05;50.32;98514.58;1591601;90;21106;-76
2021/05/20 10:14:08;;;;;;;3.95;1.30;;;;;;;19.21;51.57;98522.50;1591812;88;21683;-78
2021/05/20 10:16:38;;;;;;;4.20;1.20;;;;;;;19.63;49.58;98524.47;1591969;90;20907;-76
2021/05/20 10:19:05;;;;;;;6.30;1.47;;;;;;;19.91;48.93;98515.83;1592113;88;20960;-75
2021/05/20 10:21:33;;;;;;;8.50;1.70;;;;;;;19.93;50.06;98519.00;1591207;89;21049;-76
2021/05/20 10:24:00;;;;;;;3.42;1.40;;;;;;;19.67;48.97;98528.02;1590712;90;21146;-77
2021/05/20 10:26:27;;;;;;;2.00;1.10;;;;;;;19.24;50.56;98518.12;1590674;90;21098;-76
2021/05/20 10:28:53;;;;;;;5.15;1.30;;;;;;;18.92;50.84;98529.27;1591621;90;21602;-76
2021/05/20 10:31:19;;;;;;;2.87;1.30;;;;;;;19.08;51.63;98526.27;1591647;90;20990;-77
2021/05/20 10:33:47;;;;;;;2.62;1.10;;;;;;;19.28;51.33;98525.88;1591597;90;20979;-76
2021/05/20 10:36:26;;;;;;;3.65;1.30;;;;;;;19.28;48.88;98524.48;1591926;90;21601;-75
2021/05/20 10:38:52;;;;;;;1.90;1.00;;;;;;;19.01;51.47;98522.72;1591913;90;21678;-75
2021/05/20 10:41:23;;;;;;;3.05;1.30;;;;;;;18.68;52.21;98522.47;1592095;90;21031;-75
2021/05/20 10:43:53;;;;;;;1.63;1.33;;;;;;;18.40;52.87;98544.03;1592361;89;21031;-73
2021/05/20 10:46:20;;;;;;;6.22;1.40;;;;;;;18.12;53.07;98536.38;1589659;89;20954;-75
2021/05/20 10:48:57;;;;;;;10.82;1.10;;;;;;;17.97;53.47;98531.34;1592197;90;20967;-77
2021/05/20 10:51:26;;;;;;;3.60;1.35;;;;;;;18.12;53.98;98533.59;1592195;88;21170;-75
2021/05/20 10:54:08;;;;;;;3.33;1.12;;;;;;;18.42;53.65;98531.34;1591505;90;20975;-75
2021/05/20 10:56:47;;;;;;;1.90;0.90;;;;;;;18.64;50.68;98530.80;1591098;89;20959;-76
2021/05/20 10:59:32;;;;;;;4.17;1.00;;;;;;;18.69;49.32;98537.37;1591020;89;21537;-74
2021/05/20 11:01:59;;;;;;;4.12;0.95;;;;;;;18.69;50.40;98522.08;1591196;90;21625;-75
2021/05/20 11:04:38;;;;;;;8.10;1.25;;;;;;;18.75;49.68;98533.61;1590954;90;21158;-75
2021/05/20 11:07:05;;;;;;;5.87;1.07;;;;;;;18.88;50.16;98534.02;1590967;90;20959;-76
2021/05/20 11:09:48;;;;;;;5.60;1.25;;;;;;;19.14;49.54;98538.59;1591099;88;21043;-75
2021/05/20 11:12:17;;;;;;;6.72;1.17;;;;;;;19.35;47.95;98542.56;1576150;90;20982;-74
2021/05/20 11:14:45;;;;;;;1.67;1.00;;;;;;;19.51;48.26;98537.98;1567952;90;21120;-78
2021/05/20 11:17:31;;;;;;;2.90;1.17;;;;;;;19.70;49.44;98530.00;1568659;91;21611;-72
2021/05/20 11:20:32;;;;;;;1.65;0.90;;;;;;;19.89;47.41;98539.11;1567597;91;21001;-83
2021/05/20 11:23:19;;;;;;;;;;;;;;;19.88;47.26;98540.30;1570936;91;20990;-77
2021/05/20 11:25:47;;;;;;;10.43;1.40;;;;;;;19.81;46.79;98537.53;1566285;90;20177;-78
2021/05/20 11:28:17;;;;;;;6.22;0.90;;;;;;;19.92;47.29;98547.45;1563989;91;20963;-78
2021/05/20 11:30:45;;;;;;;1.77;0.80;;;;;;;20.05;45.29;98538.86;1544970;91;22452;-82
2021/05/20 11:33:21;;;;;;;2.92;0.98;;;;;;;20.15;45.49;98537.84;1566246;91;21062;-78
2021/05/20 11:38:32;;;;;;;4.95;0.93;;;;;;;20.39;46.09;98543.91;1540815;91;21035;-76
2021/05/20 11:41:14;;;;;;;2.90;1.00;;;;;;;20.23;45.50;98545.73;1543401;93;21118;-76
2021/05/20 11:43:42;;;;;;;3.58;1.00;;;;;;;20.02;45.17;98550.02;1567923;91;21060;-77
2021/05/20 11:46:23;;;;;;;3.85;1.45;;;;;;;20.10;46.02;98541.23;1567986;91;21071;-77
2021/05/20 11:49:23;;;;;;;3.00;0.63;;;;;;;20.53;46.11;98537.47;1567759;91;21046;-77